sensor_id;sensor_type;location;lat;lon;timestamp;P1;durP1;ratioP1;P2;durP2;ratioP2
2119;SDS011;1066;52.540;13.420;2022-07-24T00:00:14;2.87;;;1.93;;
2119;SDS011;1066;52.540;13.420;2022-07-24T00:02:40;2.67;;;1.60;;
2119;SDS011;1066;52.540;13.420;2022-07-24T00:05:06;2.90;;;2.03;;
2119;SDS011;1066;52.540;13.420;2022-07-24T00:07:32;2.43;;;1.60;;
2119;SDS011;1066;52.540;13.420;2022-07-24T00:09:59;2.00;;;1.50;;
2119;SDS011;1066;52.540;13.420;2022-07-24T00:12:25;5.43;;;1.97;;
2119;SDS011;1066;52.540;13.420;2022-07-24T00:14:50;2.40;;;2.20;;
2119;SDS011;1066;52.540;13.420;2022-07-24T00:17:15;3.13;;;1.80;;
2119;SDS011;1066;52.540;13.420;2022-07-24T00:19:41;2.00;;;1.80;;
2119;SDS011;1066;52.540;13.420;2022-07-24T00:22:06;3.50;;;1.90;;
2119;SDS011;1066;52.540;13.420;2022-07-24T00:24:31;2.47;;;2.27;;
2119;SDS011;1066;52.540;13.420;2022-07-24T00:26:57;1.97;;;1.60;;
2119;SDS011;1066;52.540;13.420;2022-07-24T00:29:22;2.67;;;1.70;;
2119;SDS011;1066;52.540;13.420;2022-07-24T00:31:48;3.50;;;2.00;;
2119;SDS011;1066;52.540;13.420;2022-07-24T00:34:14;2.60;;;2.20;;
2119;SDS011;1066;52.540;13.420;2022-07-24T00:36:39;2.00;;;1.80;;
2119;SDS011;1066;52.540;13.420;2022-07-24T00:39:08;2.83;;;2.00;;
2119;SDS011;1066;52.540;13.420;2022-07-24T00:41:33;2.80;;;1.90;;
2119;SDS011;1066;52.540;13.420;2022-07-24T00:44:03;3.23;;;2.03;;
2119;SDS011;1066;52.540;13.420;2022-07-24T00:46:33;3.10;;;2.10;;
2119;SDS011;1066;52.540;13.420;2022-07-24T00:48:59;2.10;;;1.90;;
2119;SDS011;1066;52.540;13.420;2022-07-24T00:51:25;1.87;;;1.67;;
2119;SDS011;1066;52.540;13.420;2022-07-24T00:53:50;2.30;;;1.93;;
2119;SDS011;1066;52.540;13.420;2022-07-24T00:56:16;3.87;;;1.63;;
2119;SDS011;1066;52.540;13.420;2022-07-24T00:58:41;5.87;;;2.53;;
2119;SDS011;1066;52.540;13.420;2022-07-24T01:01:06;1.87;;;1.77;;
2119;SDS011;1066;52.540;13.420;2022-07-24T01:03:32;1.90;;;1.70;;
2119;SDS011;1066;52.540;13.420;2022-07-24T01:05:57;2.53;;;2.20;;
2119;SDS011;1066;52.540;13.420;2022-07-24T01:08:23;2.10;;;1.90;;
2119;SDS011;1066;52.540;13.420;2022-07-24T01:10:49;2.43;;;1.77;;
2119;SDS011;1066;52.540;13.420;2022-07-24T01:13:15;2.93;;;1.97;;
2119;SDS011;1066;52.540;13.420;2022-07-24T01:15:40;2.10;;;1.93;;
2119;SDS011;1066;52.540;13.420;2022-07-24T01:18:06;2.40;;;2.20;;
2119;SDS011;1066;52.540;13.420;2022-07-24T01:20:35;1.97;;;1.77;;
2119;SDS011;1066;52.540;13.420;2022-07-24T01:23:01;3.37;;;2.33;;
2119;SDS011;1066;52.540;13.420;2022-07-24T01:25:26;2.80;;;2.07;;
2119;SDS011;1066;52.540;13.420;2022-07-24T01:27:52;2.87;;;2.00;;
2119;SDS011;1066;52.540;13.420;2022-07-24T01:30:17;2.13;;;1.93;;
2119;SDS011;1066;52.540;13.420;2022-07-24T01:32:42;2.37;;;2.17;;
2119;SDS011;1066;52.540;13.420;2022-07-24T01:35:08;2.00;;;1.73;;
2119;SDS011;1066;52.540;13.420;2022-07-24T01:37:33;2.90;;;2.17;;
2119;SDS011;1066;52.540;13.420;2022-07-24T01:39:59;3.43;;;2.23;;
2119;SDS011;1066;52.540;13.420;2022-07-24T01:42:24;2.40;;;2.20;;
2119;SDS011;1066;52.540;13.420;2022-07-24T01:44:50;2.80;;;2.20;;
2119;SDS011;1066;52.540;13.420;2022-07-24T01:47:16;2.17;;;1.97;;
2119;SDS011;1066;52.540;13.420;2022-07-24T01:49:41;3.53;;;2.23;;
2119;SDS011;1066;52.540;13.420;2022-07-24T01:52:07;2.83;;;2.10;;
2119;SDS011;1066;52.540;13.420;2022-07-24T01:54:34;2.50;;;2.30;;
2119;SDS011;1066;52.540;13.420;2022-07-24T01:56:59;3.10;;;2.70;;
2119;SDS011;1066;52.540;13.420;2022-07-24T01:59:25;3.63;;;2.30;;
2119;SDS011;1066;52.540;13.420;2022-07-24T02:01:50;2.20;;;2.00;;
2119;SDS011;1066;52.540;13.420;2022-07-24T02:04:15;3.53;;;2.30;;
2119;SDS011;1066;52.540;13.420;2022-07-24T02:06:41;2.57;;;2.37;;
2119;SDS011;1066;52.540;13.420;2022-07-24T02:09:06;2.40;;;2.20;;
2119;SDS011;1066;52.540;13.420;2022-07-24T02:11:31;2.33;;;2.13;;
2119;SDS011;1066;52.540;13.420;2022-07-24T02:13:57;2.53;;;1.93;;
2119;SDS011;1066;52.540;13.420;2022-07-24T02:16:25;3.17;;;2.10;;
2119;SDS011;1066;52.540;13.420;2022-07-24T02:18:50;1.93;;;1.77;;
2119;SDS011;1066;52.540;13.420;2022-07-24T02:21:16;3.67;;;2.07;;
2119;SDS011;1066;52.540;13.420;2022-07-24T02:23:41;2.20;;;1.70;;
2119;SDS011;1066;52.540;13.420;2022-07-24T02:26:06;3.40;;;1.60;;
2119;SDS011;1066;52.540;13.420;2022-07-24T02:28:32;2.00;;;1.80;;
2119;SDS011;1066;52.540;13.420;2022-07-24T02:30:57;2.40;;;1.73;;
2119;SDS011;1066;52.540;13.420;2022-07-24T02:33:22;4.17;;;2.27;;
2119;SDS011;1066;52.540;13.420;2022-07-24T02:35:48;2.40;;;2.00;;
2119;SDS011;1066;52.540;13.420;2022-07-24T02:38:13;2.87;;;2.10;;
2119;SDS011;1066;52.540;13.420;2022-07-24T02:40:39;5.07;;;2.93;;
2119;SDS011;1066;52.540;13.420;2022-07-24T02:43:04;3.40;;;2.27;;
2119;SDS011;1066;52.540;13.420;2022-07-24T02:45:29;2.30;;;2.10;;
2119;SDS011;1066;52.540;13.420;2022-07-24T02:47:56;2.90;;;1.90;;
2119;SDS011;1066;52.540;13.420;2022-07-24T02:50:22;2.20;;;2.00;;
2119;SDS011;1066;52.540;13.420;2022-07-24T02:52:49;2.63;;;2.20;;
2119;SDS011;1066;52.540;13.420;2022-07-24T02:55:15;3.30;;;2.30;;
2119;SDS011;1066;52.540;13.420;2022-07-24T02:57:40;2.33;;;2.10;;
2119;SDS011;1066;52.540;13.420;2022-07-24T03:00:08;3.73;;;2.97;;
2119;SDS011;1066;52.540;13.420;2022-07-24T03:02:35;4.17;;;2.60;;
2119;SDS011;1066;52.540;13.420;2022-07-24T03:05:01;2.90;;;2.40;;
2119;SDS011;1066;52.540;13.420;2022-07-24T03:07:27;2.10;;;1.90;;
2119;SDS011;1066;52.540;13.420;2022-07-24T03:09:53;2.87;;;1.90;;
2119;SDS011;1066;52.540;13.420;2022-07-24T03:12:18;3.23;;;2.40;;
2119;SDS011;1066;52.540;13.420;2022-07-24T03:14:44;4.10;;;2.10;;
2119;SDS011;1066;52.540;13.420;2022-07-24T03:17:09;3.93;;;2.37;;
2119;SDS011;1066;52.540;13.420;2022-07-24T03:19:34;2.53;;;2.13;;
2119;SDS011;1066;52.540;13.420;2022-07-24T03:22:00;3.70;;;2.60;;
2119;SDS011;1066;52.540;13.420;2022-07-24T03:24:25;2.70;;;2.50;;
2119;SDS011;1066;52.540;13.420;2022-07-24T03:26:50;2.70;;;2.13;;
2119;SDS011;1066;52.540;13.420;2022-07-24T03:29:16;3.10;;;2.23;;
2119;SDS011;1066;52.540;13.420;2022-07-24T03:31:41;2.47;;;2.20;;
2119;SDS011;1066;52.540;13.420;2022-07-24T03:34:07;2.43;;;2.20;;
2119;SDS011;1066;52.540;13.420;2022-07-24T03:36:33;3.50;;;2.37;;
2119;SDS011;1066;52.540;13.420;2022-07-24T03:38:58;4.53;;;2.00;;
2119;SDS011;1066;52.540;13.420;2022-07-24T03:41:23;2.80;;;2.37;;
2119;SDS011;1066;52.540;13.420;2022-07-24T03:43:49;3.33;;;2.40;;
2119;SDS011;1066;52.540;13.420;2022-07-24T03:46:14;2.90;;;2.23;;
2119;SDS011;1066;52.540;13.420;2022-07-24T03:48:40;2.60;;;2.40;;
2119;SDS011;1066;52.540;13.420;2022-07-24T03:51:05;4.70;;;2.13;;
2119;SDS011;1066;52.540;13.420;2022-07-24T03:53:30;6.53;;;2.10;;
2119;SDS011;1066;52.540;13.420;2022-07-24T03:55:56;2.67;;;2.47;;
2119;SDS011;1066;52.540;13.420;2022-07-24T03:58:21;3.33;;;2.80;;
2119;SDS011;1066;52.540;13.420;2022-07-24T04:00:46;2.67;;;2.23;;
2119;SDS011;1066;52.540;13.420;2022-07-24T04:03:12;2.50;;;2.30;;
2119;SDS011;1066;52.540;13.420;2022-07-24T04:05:37;4.30;;;2.50;;
2119;SDS011;1066;52.540;13.420;2022-07-24T04:08:02;2.40;;;2.03;;
2119;SDS011;1066;52.540;13.420;2022-07-24T04:10:28;2.03;;;1.83;;
2119;SDS011;1066;52.540;13.420;2022-07-24T04:12:53;3.70;;;2.60;;
2119;SDS011;1066;52.540;13.420;2022-07-24T04:15:19;2.13;;;1.90;;
2119;SDS011;1066;52.540;13.420;2022-07-24T04:17:44;3.60;;;2.40;;
2119;SDS011;1066;52.540;13.420;2022-07-24T04:20:10;2.40;;;2.20;;
2119;SDS011;1066;52.540;13.420;2022-07-24T04:22:36;3.93;;;2.67;;
2119;SDS011;1066;52.540;13.420;2022-07-24T04:25:02;4.40;;;2.40;;
2119;SDS011;1066;52.540;13.420;2022-07-24T04:27:28;3.00;;;2.60;;
2119;SDS011;1066;52.540;13.420;2022-07-24T04:29:53;3.37;;;2.20;;
2119;SDS011;1066;52.540;13.420;2022-07-24T04:32:19;3.03;;;2.20;;
2119;SDS011;1066;52.540;13.420;2022-07-24T04:34:44;2.50;;;2.30;;
2119;SDS011;1066;52.540;13.420;2022-07-24T04:37:09;4.30;;;2.20;;
2119;SDS011;1066;52.540;13.420;2022-07-24T04:39:35;3.10;;;2.17;;
2119;SDS011;1066;52.540;13.420;2022-07-24T04:42:00;2.77;;;2.10;;
2119;SDS011;1066;52.540;13.420;2022-07-24T04:44:25;2.40;;;2.20;;
2119;SDS011;1066;52.540;13.420;2022-07-24T04:46:51;2.87;;;2.00;;
2119;SDS011;1066;52.540;13.420;2022-07-24T04:49:16;4.73;;;2.27;;
2119;SDS011;1066;52.540;13.420;2022-07-24T04:51:41;2.30;;;2.00;;
2119;SDS011;1066;52.540;13.420;2022-07-24T04:54:07;2.20;;;2.00;;
2119;SDS011;1066;52.540;13.420;2022-07-24T04:56:32;2.43;;;2.13;;
2119;SDS011;1066;52.540;13.420;2022-07-24T04:58:58;2.40;;;2.20;;
2119;SDS011;1066;52.540;13.420;2022-07-24T05:01:24;2.60;;;1.97;;
2119;SDS011;1066;52.540;13.420;2022-07-24T05:03:50;2.67;;;1.87;;
2119;SDS011;1066;52.540;13.420;2022-07-24T05:06:15;2.00;;;1.83;;
2119;SDS011;1066;52.540;13.420;2022-07-24T05:08:42;1.93;;;1.63;;
2119;SDS011;1066;52.540;13.420;2022-07-24T05:11:07;2.40;;;1.63;;
2119;SDS011;1066;52.540;13.420;2022-07-24T05:13:33;1.80;;;1.70;;
2119;SDS011;1066;52.540;13.420;2022-07-24T05:15:58;1.97;;;1.87;;
2119;SDS011;1066;52.540;13.420;2022-07-24T05:18:23;2.03;;;1.90;;
2119;SDS011;1066;52.540;13.420;2022-07-24T05:20:49;2.00;;;1.80;;
2119;SDS011;1066;52.540;13.420;2022-07-24T05:23:14;3.27;;;1.80;;
2119;SDS011;1066;52.540;13.420;2022-07-24T05:25:39;4.17;;;2.07;;
2119;SDS011;1066;52.540;13.420;2022-07-24T05:28:05;1.80;;;1.70;;
2119;SDS011;1066;52.540;13.420;2022-07-24T05:30:30;2.77;;;2.20;;
2119;SDS011;1066;52.540;13.420;2022-07-24T05:32:55;2.60;;;1.80;;
2119;SDS011;1066;52.540;13.420;2022-07-24T05:35:21;2.80;;;1.80;;
2119;SDS011;1066;52.540;13.420;2022-07-24T05:37:46;2.40;;;1.70;;
2119;SDS011;1066;52.540;13.420;2022-07-24T05:40:12;2.20;;;1.83;;
2119;SDS011;1066;52.540;13.420;2022-07-24T05:42:37;2.27;;;1.60;;
2119;SDS011;1066;52.540;13.420;2022-07-24T05:45:03;2.70;;;1.60;;
2119;SDS011;1066;52.540;13.420;2022-07-24T05:47:34;6.83;;;1.77;;
2119;SDS011;1066;52.540;13.420;2022-07-24T05:50:10;2.07;;;1.87;;
2119;SDS011;1066;52.540;13.420;2022-07-24T05:52:37;3.47;;;2.90;;
2119;SDS011;1066;52.540;13.420;2022-07-24T05:55:03;16.13;;;13.10;;
2119;SDS011;1066;52.540;13.420;2022-07-24T05:57:30;19.07;;;16.63;;
2119;SDS011;1066;52.540;13.420;2022-07-24T05:59:55;24.83;;;16.13;;
2119;SDS011;1066;52.540;13.420;2022-07-24T06:02:20;13.07;;;10.73;;
2119;SDS011;1066;52.540;13.420;2022-07-24T06:04:46;26.43;;;20.07;;
2119;SDS011;1066;52.540;13.420;2022-07-24T06:07:11;20.97;;;15.80;;
2119;SDS011;1066;52.540;13.420;2022-07-24T06:09:37;44.03;;;33.77;;
2119;SDS011;1066;52.540;13.420;2022-07-24T06:12:03;26.30;;;18.80;;
2119;SDS011;1066;52.540;13.420;2022-07-24T06:14:29;26.37;;;17.43;;
2119;SDS011;1066;52.540;13.420;2022-07-24T06:16:55;7.70;;;5.93;;
2119;SDS011;1066;52.540;13.420;2022-07-24T06:19:20;12.20;;;9.20;;
2119;SDS011;1066;52.540;13.420;2022-07-24T06:21:46;10.27;;;8.60;;
2119;SDS011;1066;52.540;13.420;2022-07-24T06:24:11;13.10;;;10.73;;
2119;SDS011;1066;52.540;13.420;2022-07-24T06:26:36;15.03;;;10.80;;
2119;SDS011;1066;52.540;13.420;2022-07-24T06:29:02;11.07;;;8.73;;
2119;SDS011;1066;52.540;13.420;2022-07-24T06:31:28;14.37;;;12.20;;
2119;SDS011;1066;52.540;13.420;2022-07-24T06:33:53;12.20;;;8.90;;
2119;SDS011;1066;52.540;13.420;2022-07-24T06:36:18;8.23;;;6.63;;
2119;SDS011;1066;52.540;13.420;2022-07-24T06:38:44;7.70;;;5.37;;
2119;SDS011;1066;52.540;13.420;2022-07-24T06:41:09;9.40;;;7.37;;
2119;SDS011;1066;52.540;13.420;2022-07-24T06:43:34;24.87;;;21.40;;
2119;SDS011;1066;52.540;13.420;2022-07-24T06:46:00;31.97;;;24.10;;
2119;SDS011;1066;52.540;13.420;2022-07-24T06:48:25;25.57;;;20.93;;
2119;SDS011;1066;52.540;13.420;2022-07-24T06:50:50;15.97;;;13.90;;
2119;SDS011;1066;52.540;13.420;2022-07-24T06:53:16;32.87;;;26.87;;
2119;SDS011;1066;52.540;13.420;2022-07-24T06:55:41;24.37;;;20.20;;
2119;SDS011;1066;52.540;13.420;2022-07-24T06:58:06;19.47;;;16.53;;
2119;SDS011;1066;52.540;13.420;2022-07-24T07:00:32;18.57;;;14.80;;
2119;SDS011;1066;52.540;13.420;2022-07-24T07:02:57;16.63;;;13.63;;
2119;SDS011;1066;52.540;13.420;2022-07-24T07:05:23;21.53;;;16.70;;
2119;SDS011;1066;52.540;13.420;2022-07-24T07:07:49;12.97;;;11.57;;
2119;SDS011;1066;52.540;13.420;2022-07-24T07:10:14;11.87;;;9.73;;
2119;SDS011;1066;52.540;13.420;2022-07-24T07:12:40;12.90;;;10.67;;
2119;SDS011;1066;52.540;13.420;2022-07-24T07:15:05;13.63;;;10.43;;
2119;SDS011;1066;52.540;13.420;2022-07-24T07:17:31;32.20;;;25.03;;
2119;SDS011;1066;52.540;13.420;2022-07-24T07:19:56;31.70;;;24.93;;
2119;SDS011;1066;52.540;13.420;2022-07-24T07:22:22;23.73;;;19.70;;
2119;SDS011;1066;52.540;13.420;2022-07-24T07:24:47;21.60;;;16.90;;
2119;SDS011;1066;52.540;13.420;2022-07-24T07:27:13;18.47;;;15.20;;
2119;SDS011;1066;52.540;13.420;2022-07-24T07:29:38;20.13;;;16.93;;
2119;SDS011;1066;52.540;13.420;2022-07-24T07:32:04;4.90;;;3.83;;
2119;SDS011;1066;52.540;13.420;2022-07-24T07:34:29;29.60;;;23.23;;
2119;SDS011;1066;52.540;13.420;2022-07-24T07:36:55;20.63;;;16.30;;
2119;SDS011;1066;52.540;13.420;2022-07-24T07:39:20;23.83;;;19.23;;
2119;SDS011;1066;52.540;13.420;2022-07-24T07:41:45;21.60;;;16.17;;
2119;SDS011;1066;52.540;13.420;2022-07-24T07:44:11;19.40;;;16.93;;
2119;SDS011;1066;52.540;13.420;2022-07-24T07:46:36;11.10;;;9.30;;
2119;SDS011;1066;52.540;13.420;2022-07-24T07:49:02;25.90;;;21.70;;
2119;SDS011;1066;52.540;13.420;2022-07-24T07:51:28;41.30;;;34.13;;
2119;SDS011;1066;52.540;13.420;2022-07-24T07:53:53;21.00;;;17.93;;
2119;SDS011;1066;52.540;13.420;2022-07-24T07:56:18;9.10;;;8.10;;
2119;SDS011;1066;52.540;13.420;2022-07-24T07:58:45;15.20;;;12.80;;
2119;SDS011;1066;52.540;13.420;2022-07-24T08:01:11;15.43;;;12.97;;
2119;SDS011;1066;52.540;13.420;2022-07-24T08:03:36;17.87;;;15.93;;
2119;SDS011;1066;52.540;13.420;2022-07-24T08:06:01;13.90;;;11.40;;
2119;SDS011;1066;52.540;13.420;2022-07-24T08:08:29;14.90;;;13.10;;
2119;SDS011;1066;52.540;13.420;2022-07-24T08:10:54;11.93;;;10.57;;
2119;SDS011;1066;52.540;13.420;2022-07-24T08:13:19;14.93;;;10.50;;
2119;SDS011;1066;52.540;13.420;2022-07-24T08:15:45;8.27;;;7.23;;
2119;SDS011;1066;52.540;13.420;2022-07-24T08:18:10;11.60;;;8.80;;
2119;SDS011;1066;52.540;13.420;2022-07-24T08:20:35;9.13;;;6.90;;
2119;SDS011;1066;52.540;13.420;2022-07-24T08:23:01;10.53;;;7.57;;
2119;SDS011;1066;52.540;13.420;2022-07-24T08:25:26;8.53;;;7.67;;
2119;SDS011;1066;52.540;13.420;2022-07-24T08:27:52;7.20;;;6.13;;
2119;SDS011;1066;52.540;13.420;2022-07-24T08:30:18;6.33;;;5.43;;
2119;SDS011;1066;52.540;13.420;2022-07-24T08:32:43;7.03;;;6.43;;
2119;SDS011;1066;52.540;13.420;2022-07-24T08:35:09;6.20;;;3.70;;
2119;SDS011;1066;52.540;13.420;2022-07-24T08:37:40;4.07;;;3.67;;
2119;SDS011;1066;52.540;13.420;2022-07-24T08:40:06;5.80;;;5.13;;
2119;SDS011;1066;52.540;13.420;2022-07-24T08:42:32;5.33;;;4.17;;
2119;SDS011;1066;52.540;13.420;2022-07-24T08:44:59;4.37;;;3.80;;
2119;SDS011;1066;52.540;13.420;2022-07-24T08:47:27;3.93;;;2.27;;
2119;SDS011;1066;52.540;13.420;2022-07-24T08:49:53;4.20;;;3.70;;
2119;SDS011;1066;52.540;13.420;2022-07-24T08:52:21;2.40;;;1.63;;
2119;SDS011;1066;52.540;13.420;2022-07-24T08:54:47;4.13;;;3.03;;
2119;SDS011;1066;52.540;13.420;2022-07-24T08:57:12;3.97;;;3.60;;
2119;SDS011;1066;52.540;13.420;2022-07-24T08:59:37;5.27;;;3.87;;
2119;SDS011;1066;52.540;13.420;2022-07-24T09:02:03;5.53;;;4.10;;
2119;SDS011;1066;52.540;13.420;2022-07-24T09:07:08;3.90;;;3.07;;
2119;SDS011;1066;52.540;13.420;2022-07-24T09:09:35;2.83;;;2.50;;
2119;SDS011;1066;52.540;13.420;2022-07-24T09:12:02;3.10;;;2.60;;
2119;SDS011;1066;52.540;13.420;2022-07-24T09:14:39;3.93;;;2.83;;
2119;SDS011;1066;52.540;13.420;2022-07-24T09:17:07;2.60;;;2.37;;
2119;SDS011;1066;52.540;13.420;2022-07-24T09:19:53;2.87;;;2.50;;
2119;SDS011;1066;52.540;13.420;2022-07-24T09:25:05;3.00;;;2.10;;
2119;SDS011;1066;52.540;13.420;2022-07-24T09:27:32;3.93;;;2.90;;
2119;SDS011;1066;52.540;13.420;2022-07-24T09:29:58;2.87;;;2.23;;
2119;SDS011;1066;52.540;13.420;2022-07-24T09:32:24;2.77;;;2.47;;
2119;SDS011;1066;52.540;13.420;2022-07-24T09:34:50;2.50;;;2.30;;
2119;SDS011;1066;52.540;13.420;2022-07-24T09:37:17;3.00;;;2.00;;
2119;SDS011;1066;52.540;13.420;2022-07-24T09:39:42;2.20;;;2.00;;
2119;SDS011;1066;52.540;13.420;2022-07-24T09:42:08;3.20;;;2.37;;
2119;SDS011;1066;52.540;13.420;2022-07-24T09:44:34;2.23;;;2.03;;
2119;SDS011;1066;52.540;13.420;2022-07-24T09:47:03;4.23;;;2.20;;
2119;SDS011;1066;52.540;13.420;2022-07-24T09:49:30;2.10;;;1.90;;
2119;SDS011;1066;52.540;13.420;2022-07-24T09:52:31;2.97;;;2.00;;
2119;SDS011;1066;52.540;13.420;2022-07-24T09:54:57;3.20;;;2.40;;
2119;SDS011;1066;52.540;13.420;2022-07-24T09:57:23;3.33;;;2.87;;
2119;SDS011;1066;52.540;13.420;2022-07-24T09:59:55;3.53;;;2.20;;
2119;SDS011;1066;52.540;13.420;2022-07-24T10:02:27;2.53;;;1.97;;
2119;SDS011;1066;52.540;13.420;2022-07-24T10:04:55;2.10;;;1.90;;
2119;SDS011;1066;52.540;13.420;2022-07-24T10:07:21;3.53;;;2.10;;
2119;SDS011;1066;52.540;13.420;2022-07-24T10:09:48;2.70;;;2.50;;
2119;SDS011;1066;52.540;13.420;2022-07-24T10:12:19;1.70;;;1.60;;
2119;SDS011;1066;52.540;13.420;2022-07-24T10:14:47;2.37;;;1.90;;
2119;SDS011;1066;52.540;13.420;2022-07-24T10:17:14;1.97;;;1.77;;
2119;SDS011;1066;52.540;13.420;2022-07-24T10:22:16;2.67;;;1.90;;
2119;SDS011;1066;52.540;13.420;2022-07-24T10:29:51;2.77;;;1.77;;
2119;SDS011;1066;52.540;13.420;2022-07-24T10:32:18;3.03;;;2.10;;
2119;SDS011;1066;52.540;13.420;2022-07-24T10:37:18;2.70;;;1.70;;
2119;SDS011;1066;52.540;13.420;2022-07-24T10:59:08;3.30;;;2.07;;
2119;SDS011;1066;52.540;13.420;2022-07-24T11:06:47;2.40;;;2.20;;
2119;SDS011;1066;52.540;13.420;2022-07-24T11:09:14;3.27;;;2.10;;
2119;SDS011;1066;52.540;13.420;2022-07-24T11:11:41;2.40;;;2.20;;
2119;SDS011;1066;52.540;13.420;2022-07-24T11:14:08;2.10;;;1.83;;
2119;SDS011;1066;52.540;13.420;2022-07-24T11:16:33;2.73;;;2.10;;
2119;SDS011;1066;52.540;13.420;2022-07-24T11:21:31;3.10;;;2.30;;
2119;SDS011;1066;52.540;13.420;2022-07-24T11:26:45;2.43;;;2.20;;
2119;SDS011;1066;52.540;13.420;2022-07-24T11:29:21;2.40;;;2.07;;
2119;SDS011;1066;52.540;13.420;2022-07-24T11:32:02;2.40;;;2.13;;
2119;SDS011;1066;52.540;13.420;2022-07-24T11:34:30;2.70;;;2.30;;
2119;SDS011;1066;52.540;13.420;2022-07-24T11:36:57;2.17;;;1.97;;
2119;SDS011;1066;52.540;13.420;2022-07-24T11:39:28;2.27;;;2.07;;
2119;SDS011;1066;52.540;13.420;2022-07-24T11:41:59;2.40;;;2.20;;
2119;SDS011;1066;52.540;13.420;2022-07-24T11:44:27;4.67;;;3.37;;
2119;SDS011;1066;52.540;13.420;2022-07-24T11:46:54;2.63;;;2.13;;
2119;SDS011;1066;52.540;13.420;2022-07-24T11:49:22;2.70;;;2.10;;
2119;SDS011;1066;52.540;13.420;2022-07-24T11:51:48;1.80;;;1.60;;
2119;SDS011;1066;52.540;13.420;2022-07-24T11:54:15;2.27;;;2.07;;
2119;SDS011;1066;52.540;13.420;2022-07-24T11:56:46;2.87;;;2.00;;
2119;SDS011;1066;52.540;13.420;2022-07-24T12:02:05;2.50;;;2.30;;
2119;SDS011;1066;52.540;13.420;2022-07-24T12:04:32;2.83;;;2.53;;
2119;SDS011;1066;52.540;13.420;2022-07-24T12:06:58;3.43;;;2.10;;
2119;SDS011;1066;52.540;13.420;2022-07-24T12:09:24;2.80;;;2.50;;
2119;SDS011;1066;52.540;13.420;2022-07-24T12:11:49;2.70;;;2.50;;
2119;SDS011;1066;52.540;13.420;2022-07-24T12:14:15;2.80;;;2.20;;
2119;SDS011;1066;52.540;13.420;2022-07-24T12:16:42;2.20;;;2.00;;
2119;SDS011;1066;52.540;13.420;2022-07-24T12:19:21;2.37;;;2.17;;
2119;SDS011;1066;52.540;13.420;2022-07-24T12:21:49;5.73;;;2.13;;
2119;SDS011;1066;52.540;13.420;2022-07-24T12:24:16;2.73;;;2.30;;
2119;SDS011;1066;52.540;13.420;2022-07-24T12:26:51;2.40;;;2.20;;
2119;SDS011;1066;52.540;13.420;2022-07-24T12:29:18;2.20;;;2.00;;
2119;SDS011;1066;52.540;13.420;2022-07-24T12:31:43;1.75;;;1.65;;
2119;SDS011;1066;52.540;13.420;2022-07-24T12:34:09;1.92;;;1.77;;
2119;SDS011;1066;52.540;13.420;2022-07-24T12:36:34;2.15;;;2.03;;
2119;SDS011;1066;52.540;13.420;2022-07-24T12:39:00;2.30;;;2.05;;
2119;SDS011;1066;52.540;13.420;2022-07-24T12:41:26;1.90;;;1.65;;
2119;SDS011;1066;52.540;13.420;2022-07-24T12:46:21;1.92;;;1.83;;
2119;SDS011;1066;52.540;13.420;2022-07-24T12:51:51;2.42;;;1.80;;
2119;SDS011;1066;52.540;13.420;2022-07-24T12:54:20;1.90;;;1.80;;
2119;SDS011;1066;52.540;13.420;2022-07-24T12:56:57;2.55;;;1.98;;
2119;SDS011;1066;52.540;13.420;2022-07-24T12:59:30;1.92;;;1.80;;
2119;SDS011;1066;52.540;13.420;2022-07-24T13:01:57;1.70;;;1.58;;
2119;SDS011;1066;52.540;13.420;2022-07-24T13:04:24;1.80;;;1.70;;
2119;SDS011;1066;52.540;13.420;2022-07-24T13:06:52;3.13;;;1.98;;
2119;SDS011;1066;52.540;13.420;2022-07-24T13:09:19;1.80;;;1.70;;
2119;SDS011;1066;52.540;13.420;2022-07-24T13:11:46;3.08;;;2.42;;
2119;SDS011;1066;52.540;13.420;2022-07-24T13:14:13;2.45;;;2.05;;
2119;SDS011;1066;52.540;13.420;2022-07-24T13:16:40;2.47;;;2.28;;
2119;SDS011;1066;52.540;13.420;2022-07-24T13:19:07;3.60;;;3.30;;
2119;SDS011;1066;52.540;13.420;2022-07-24T13:21:33;2.72;;;2.53;;
2119;SDS011;1066;52.540;13.420;2022-07-24T13:23:59;1.83;;;1.73;;
2119;SDS011;1066;52.540;13.420;2022-07-24T13:26:24;1.83;;;1.73;;
2119;SDS011;1066;52.540;13.420;2022-07-24T13:28:50;1.73;;;1.63;;
2119;SDS011;1066;52.540;13.420;2022-07-24T13:31:15;2.03;;;1.88;;
2119;SDS011;1066;52.540;13.420;2022-07-24T13:33:42;2.30;;;2.05;;
2119;SDS011;1066;52.540;13.420;2022-07-24T13:36:07;1.80;;;1.70;;
2119;SDS011;1066;52.540;13.420;2022-07-24T13:38:33;2.30;;;2.10;;
2119;SDS011;1066;52.540;13.420;2022-07-24T13:40:58;2.15;;;1.83;;
2119;SDS011;1066;52.540;13.420;2022-07-24T13:43:23;2.17;;;1.98;;
2119;SDS011;1066;52.540;13.420;2022-07-24T13:45:50;2.38;;;2.17;;
2119;SDS011;1066;52.540;13.420;2022-07-24T13:48:16;2.55;;;2.10;;
2119;SDS011;1066;52.540;13.420;2022-07-24T13:50:41;3.70;;;3.42;;
2119;SDS011;1066;52.540;13.420;2022-07-24T13:53:06;2.38;;;1.88;;
2119;SDS011;1066;52.540;13.420;2022-07-24T13:55:32;2.33;;;2.13;;
2119;SDS011;1066;52.540;13.420;2022-07-24T13:57:57;2.47;;;2.28;;
2119;SDS011;1066;52.540;13.420;2022-07-24T14:00:23;2.50;;;2.13;;
2119;SDS011;1066;52.540;13.420;2022-07-24T14:02:49;2.60;;;2.23;;
2119;SDS011;1066;52.540;13.420;2022-07-24T14:05:20;1.90;;;1.80;;
2119;SDS011;1066;52.540;13.420;2022-07-24T14:07:46;2.70;;;2.50;;
2119;SDS011;1066;52.540;13.420;2022-07-24T14:10:11;3.80;;;2.70;;
2119;SDS011;1066;52.540;13.420;2022-07-24T14:12:36;3.23;;;2.90;;
2119;SDS011;1066;52.540;13.420;2022-07-24T14:15:02;2.47;;;2.27;;
2119;SDS011;1066;52.540;13.420;2022-07-24T14:17:27;3.23;;;2.70;;
2119;SDS011;1066;52.540;13.420;2022-07-24T14:19:53;3.70;;;2.40;;
2119;SDS011;1066;52.540;13.420;2022-07-24T14:22:18;3.90;;;3.53;;
2119;SDS011;1066;52.540;13.420;2022-07-24T14:24:43;2.70;;;2.50;;
2119;SDS011;1066;52.540;13.420;2022-07-24T14:27:09;2.63;;;2.43;;
2119;SDS011;1066;52.540;13.420;2022-07-24T14:29:34;3.43;;;2.00;;
2119;SDS011;1066;52.540;13.420;2022-07-24T14:31:59;2.40;;;2.20;;
2119;SDS011;1066;52.540;13.420;2022-07-24T14:34:24;2.50;;;2.30;;
2119;SDS011;1066;52.540;13.420;2022-07-24T14:36:50;2.17;;;1.97;;
2119;SDS011;1066;52.540;13.420;2022-07-24T14:39:15;2.70;;;2.50;;
2119;SDS011;1066;52.540;13.420;2022-07-24T14:41:41;3.20;;;3.00;;
2119;SDS011;1066;52.540;13.420;2022-07-24T14:44:06;6.63;;;6.13;;
2119;SDS011;1066;52.540;13.420;2022-07-24T14:46:32;3.63;;;3.13;;
2119;SDS011;1066;52.540;13.420;2022-07-24T14:48:57;4.93;;;3.20;;
2119;SDS011;1066;52.540;13.420;2022-07-24T14:51:23;3.20;;;2.90;;
2119;SDS011;1066;52.540;13.420;2022-07-24T14:53:48;3.90;;;3.60;;
2119;SDS011;1066;52.540;13.420;2022-07-24T14:56:13;3.93;;;3.23;;
2119;SDS011;1066;52.540;13.420;2022-07-24T14:58:39;3.63;;;3.30;;
2119;SDS011;1066;52.540;13.420;2022-07-24T15:01:04;2.97;;;2.53;;
2119;SDS011;1066;52.540;13.420;2022-07-24T15:03:30;3.60;;;2.80;;
2119;SDS011;1066;52.540;13.420;2022-07-24T15:05:55;3.17;;;2.93;;
2119;SDS011;1066;52.540;13.420;2022-07-24T15:08:20;3.00;;;2.80;;
2119;SDS011;1066;52.540;13.420;2022-07-24T15:10:46;3.43;;;3.13;;
2119;SDS011;1066;52.540;13.420;2022-07-24T15:13:11;4.13;;;3.30;;
2119;SDS011;1066;52.540;13.420;2022-07-24T15:15:36;23.93;;;21.67;;
2119;SDS011;1066;52.540;13.420;2022-07-24T15:18:02;4.30;;;3.90;;
2119;SDS011;1066;52.540;13.420;2022-07-24T15:20:27;15.77;;;14.40;;
2119;SDS011;1066;52.540;13.420;2022-07-24T15:22:53;11.80;;;10.80;;
2119;SDS011;1066;52.540;13.420;2022-07-24T15:25:18;7.60;;;6.60;;
2119;SDS011;1066;52.540;13.420;2022-07-24T15:27:43;4.53;;;4.13;;
2119;SDS011;1066;52.540;13.420;2022-07-24T15:30:10;4.60;;;4.20;;
2119;SDS011;1066;52.540;13.420;2022-07-24T15:32:41;28.57;;;25.83;;
2119;SDS011;1066;52.540;13.420;2022-07-24T15:35:07;30.83;;;28.03;;
2119;SDS011;1066;52.540;13.420;2022-07-24T15:37:32;21.10;;;19.10;;
2119;SDS011;1066;52.540;13.420;2022-07-24T15:39:58;49.53;;;44.87;;
2119;SDS011;1066;52.540;13.420;2022-07-24T15:42:24;26.43;;;23.90;;
2119;SDS011;1066;52.540;13.420;2022-07-24T15:44:49;5.83;;;5.33;;